Time;durP1;ratioP1;P1;durP2;ratioP2;P2;SDS_P1;SDS_P2;PMS_P1;PMS_P2;Temp;Humidity;BMP_temperature;BMP_pressure;BME280_temperature;BME280_humidity;BME280_pressure;Samples;Min_cycle;Max_cycle;Signal;HPM_P1;HPM_P2
2023/07/31 00:01:59;;;;;;;2.65;1.52;;;;;;;26.73;42.43;99191.44;5096625;28;20058;-63
2023/07/31 00:04:25;;;;;;;2.92;1.33;;;;;;;26.49;42.57;99174.19;5094701;28;20044;-63
2023/07/31 00:06:51;;;;;;;2.72;2.15;;;;;;;26.47;43.04;99192.66;5096620;28;20348;-63
2023/07/31 00:09:16;;;;;;;1.65;1.25;;;;;;;26.38;43.05;99195.16;5095995;28;20714;-64
2023/07/31 00:11:42;;;;;;;1.30;1.20;;;;;;;26.32;43.86;99197.06;5095779;28;20040;-64
2023/07/31 00:14:07;;;;;;;2.75;1.50;;;;;;;26.23;43.55;99193.28;5095706;28;20203;-64
2023/07/31 00:16:33;;;;;;;1.98;1.52;;;;;;;26.23;44.13;99195.19;5096845;28;20028;-63
2023/07/31 00:18:58;;;;;;;2.38;1.38;;;;;;;26.23;44.12;99197.91;5095916;28;20039;-64
2023/07/31 00:21:24;;;;;;;3.08;1.40;;;;;;;26.24;44.24;99200.34;5095576;28;20273;-64
2023/07/31 00:23:49;;;;;;;2.33;1.27;;;;;;;26.27;44.35;99199.78;5097713;28;20032;-64
2023/07/31 00:26:15;;;;;;;1.30;1.20;;;;;;;26.18;43.92;99200.63;5098745;28;20107;-64
2023/07/31 00:28:41;;;;;;;1.38;1.20;;;;;;;26.13;44.44;99206.91;5099235;28;20032;-64
2023/07/31 00:31:06;;;;;;;2.35;1.35;;;;;;;26.11;45.03;99202.84;5099960;28;20055;-64
2023/07/31 00:33:34;;;;;;;1.88;1.30;;;;;;;26.10;45.01;99207.44;5100001;28;20046;-64
2023/07/31 00:35:59;;;;;;;1.98;1.33;;;;;;;26.15;44.23;99203.91;5099538;28;20081;-64
2023/07/31 00:38:25;;;;;;;1.77;1.20;;;;;;;26.15;44.69;99207.44;5102938;28;20043;-64
2023/07/31 00:40:50;;;;;;;2.70;1.50;;;;;;;26.13;45.03;99214.22;5100698;28;20230;-64
2023/07/31 00:43:16;;;;;;;2.63;1.60;;;;;;;26.07;44.70;99218.84;5100816;28;20314;-64
2023/07/31 00:45:42;;;;;;;4.13;1.40;;;;;;;26.05;44.82;99216.41;5099958;28;20043;-64
2023/07/31 00:48:08;;;;;;;1.20;1.10;;;;;;;26.06;44.54;99209.09;5099876;28;20041;-64
2023/07/31 00:50:34;;;;;;;1.63;1.50;;;;;;;26.06;44.76;99207.19;5100847;28;20362;-64
2023/07/31 00:53:00;;;;;;;2.00;1.40;;;;;;;26.05;45.14;99208.28;5095548;28;20323;-64
2023/07/31 00:55:26;;;;;;;1.65;1.15;;;;;;;26.13;44.96;99204.19;5100463;28;20049;-64
2023/07/31 00:57:52;;;;;;;1.38;1.27;;;;;;;26.19;44.87;99207.69;5099278;28;20257;-64
2023/07/31 01:00:19;;;;;;;2.72;1.13;;;;;;;26.12;45.22;99209.88;5098798;28;20234;-64
2023/07/31 01:02:44;;;;;;;2.03;1.45;;;;;;;26.13;45.15;99216.94;5100316;28;20047;-63
2023/07/31 01:05:10;;;;;;;3.47;1.33;;;;;;;26.09;45.60;99220.19;5100527;28;20048;-64
2023/07/31 01:07:54;;;;;;;3.72;1.90;;;;;;;26.10;45.80;99223.72;5101483;28;20253;-64
2023/07/31 01:10:48;;;;;;;1.38;1.27;;;;;;;26.11;45.23;99217.22;5099510;28;20051;-64
2023/07/31 01:13:15;;;;;;;1.65;1.40;;;;;;;26.08;44.93;99205.00;5100543;28;20032;-64
2023/07/31 01:15:40;;;;;;;1.33;1.23;;;;;;;26.06;45.43;99209.91;5099318;28;20070;-63
2023/07/31 01:18:06;;;;;;;2.13;1.40;;;;;;;26.12;45.27;99213.41;5098024;28;20028;-64
2023/07/31 01:20:33;;;;;;;1.73;1.52;;;;;;;26.12;45.30;99216.13;5100904;28;20063;-64
2023/07/31 01:23:34;;;;;;;3.20;1.85;;;;;;;26.14;45.60;99224.81;5099371;28;20035;-64
2023/07/31 01:26:18;;;;;;;2.20;1.30;;;;;;;26.11;45.79;99228.06;5099141;28;20039;-64
2023/07/31 01:29:02;;;;;;;3.85;1.60;;;;;;;26.07;45.86;99218.84;5100088;28;20321;-64
2023/07/31 01:31:29;;;;;;;3.03;2.42;;;;;;;26.09;45.36;99219.38;5094471;28;20040;-64
2023/07/31 01:33:59;;;;;;;3.17;1.67;;;;;;;26.08;45.62;99217.75;5098889;28;20101;-64
2023/07/31 01:36:25;;;;;;;4.05;1.95;;;;;;;26.11;46.25;99217.22;5099521;28;20157;-64
2023/07/31 01:38:50;;;;;;;3.22;1.80;;;;;;;26.06;46.29;99222.66;5097993;28;20062;-64
2023/07/31 01:41:19;;;;;;;1.80;1.30;;;;;;;26.02;46.19;99219.69;5097660;28;20047;-64
2023/07/31 01:43:48;;;;;;;3.55;1.42;;;;;;;26.05;45.99;99227.28;5098030;28;20032;-64
2023/07/31 01:46:13;;;;;;;1.70;1.60;;;;;;;26.01;46.80;99234.34;5093811;28;20075;-64
2023/07/31 01:48:39;;;;;;;3.20;1.95;;;;;;;25.81;47.39;99234.34;5099332;28;20027;-64
2023/07/31 01:51:04;;;;;;;3.25;2.05;;;;;;;25.66;47.57;99227.06;5099271;28;20055;-64
2023/07/31 01:53:31;;;;;;;3.25;1.80;;;;;;;25.67;47.48;99225.97;5100625;28;20036;-64
2023/07/31 01:55:57;;;;;;;2.90;1.90;;;;;;;25.56;47.34;99227.03;5099834;28;20047;-64
2023/07/31 01:58:22;;;;;;;2.88;1.73;;;;;;;25.39;47.62;99230.03;5097465;28;20044;-64
2023/07/31 02:00:48;;;;;;;5.32;2.20;;;;;;;25.30;48.24;99225.41;5098412;28;20039;-64
2023/07/31 02:03:13;;;;;;;3.65;2.50;;;;;;;25.19;48.03;99230.03;5098322;28;20346;-64
2023/07/31 02:05:46;;;;;;;3.83;2.35;;;;;;;25.20;48.04;99220.81;5098338;28;20353;-64
2023/07/31 02:08:11;;;;;;;2.10;1.90;;;;;;;25.19;48.26;99227.31;5099992;28;20060;-64
2023/07/31 02:10:37;;;;;;;4.55;2.28;;;;;;;25.15;48.34;99228.94;5098517;28;20036;-64
2023/07/31 02:13:03;;;;;;;4.20;2.72;;;;;;;25.17;48.52;99232.19;5100297;28;20308;-63
2023/07/31 02:15:30;;;;;;;5.35;2.70;;;;;;;25.24;48.06;99229.22;5098175;28;20043;-64
2023/07/31 02:17:55;;;;;;;3.03;2.67;;;;;;;25.27;47.73;99232.19;5099351;28;20032;-63
2023/07/31 02:20:21;;;;;;;6.10;2.25;;;;;;;25.38;47.80;99230.28;5099841;28;20104;-64
2023/07/31 02:22:46;;;;;;;3.97;2.63;;;;;;;25.48;47.03;99237.59;5095986;28;20040;-64
2023/07/31 02:25:12;;;;;;;3.97;2.78;;;;;;;25.50;47.55;99238.16;5099558;28;20097;-64
2023/07/31 02:27:37;;;;;;;3.05;2.60;;;;;;;25.55;47.76;99233.53;5099010;28;20024;-64
2023/07/31 02:30:03;;;;;;;3.78;2.35;;;;;;;25.62;47.29;99244.91;5099374;28;20039;-65
2023/07/31 02:32:29;;;;;;;2.67;2.17;;;;;;;25.63;47.41;99234.88;5097302;28;20035;-64
2023/07/31 02:34:54;;;;;;;4.80;3.08;;;;;;;25.69;47.33;99237.34;5097463;28;20278;-64
2023/07/31 02:37:20;;;;;;;3.45;2.53;;;;;;;25.38;47.95;99231.09;5098968;28;20044;-64
2023/07/31 02:39:45;;;;;;;3.63;2.50;;;;;;;25.17;49.01;99215.94;5098707;28;20039;-64
2023/07/31 02:42:11;;;;;;;4.05;2.42;;;;;;;25.14;49.14;99216.47;5099050;28;20284;-65
2023/07/31 02:44:37;;;;;;;4.55;2.55;;;;;;;25.24;48.81;99221.88;5098184;28;20241;-64
2023/07/31 02:47:03;;;;;;;5.30;2.67;;;;;;;25.32;48.28;99223.25;5097463;28;20035;-63
2023/07/31 02:49:28;;;;;;;4.40;2.25;;;;;;;25.37;48.14;99225.97;5098638;28;20040;-63
2023/07/31 02:51:54;;;;;;;2.63;2.05;;;;;;;25.44;47.96;99232.72;5097984;28;20221;-64
2023/07/31 02:54:21;;;;;;;3.38;2.20;;;;;;;25.53;48.41;99227.56;5097299;28;20337;-64
2023/07/31 02:56:47;;;;;;;4.50;2.00;;;;;;;25.58;48.37;99219.44;5098061;28;20443;-63
2023/07/31 02:59:13;;;;;;;4.22;2.00;;;;;;;25.59;47.63;99210.22;5097300;28;20406;-65
2023/07/31 03:01:38;;;;;;;3.40;2.00;;;;;;;25.59;47.78;99215.63;5099087;28;20039;-64
2023/07/31 03:04:04;;;;;;;3.78;2.05;;;;;;;25.65;47.53;99213.72;5098810;28;20044;-64
2023/07/31 03:06:29;;;;;;;4.53;2.05;;;;;;;25.63;47.90;99205.88;5097099;28;20326;-65
2023/07/31 03:08:55;;;;;;;4.20;2.03;;;;;;;25.65;47.59;99203.72;5096938;28;20032;-65
2023/07/31 03:11:21;;;;;;;8.25;2.63;;;;;;;25.62;47.88;99204.25;5096141;28;20232;-64
2023/07/31 03:13:46;;;;;;;5.43;2.40;;;;;;;25.59;48.12;99209.41;5097493;28;20028;-64
2023/07/31 03:16:12;;;;;;;4.15;2.65;;;;;;;25.55;48.41;99206.44;5096687;28;20047;-64
2023/07/31 03:18:37;;;;;;;5.18;2.55;;;;;;;25.58;48.62;99208.59;5095451;28;20035;-65
2023/07/31 03:21:04;;;;;;;3.50;2.80;;;;;;;25.60;49.06;99205.59;5097508;28;20107;-66
2023/07/31 03:23:30;;;;;;;5.28;2.65;;;;;;;25.63;49.19;99211.28;5096431;28;20178;-63
2023/07/31 03:25:59;;;;;;;4.07;3.10;;;;;;;25.56;49.97;99218.91;5097766;28;20096;-65
2023/07/31 03:28:25;;;;;;;5.72;3.22;;;;;;;25.54;53.14;99220.25;5093845;28;20128;-65
2023/07/31 03:30:51;;;;;;;7.78;3.80;;;;;;;25.61;60.10;99229.75;5098329;28;20301;-65
2023/07/31 03:33:17;;;;;;;6.72;4.25;;;;;;;25.53;63.88;99227.56;5095909;28;20341;-65
2023/07/31 03:35:42;;;;;;;7.53;4.93;;;;;;;25.48;68.40;99229.47;5098274;28;20044;-65
2023/07/31 03:38:08;;;;;;;5.88;4.95;;;;;;;25.40;73.42;99239.78;5097345;28;20340;-65
2023/07/31 03:40:33;;;;;;;11.13;6.30;;;;;;;25.13;77.09;99237.31;5097175;28;20349;-64
2023/07/31 03:42:59;;;;;;;17.48;6.43;;;;;;;24.96;80.50;99246.72;5095357;28;20045;-65
2023/07/31 03:45:24;;;;;;;9.18;6.78;;;;;;;25.03;82.93;99239.22;5096291;28;20063;-65
2023/07/31 03:47:50;;;;;;;10.50;6.82;;;;;;;24.95;86.16;99245.09;5095802;28;20035;-65
2023/07/31 03:50:16;;;;;;;10.50;6.85;;;;;;;24.81;88.67;99250.22;5097040;28;20064;-65
2023/07/31 03:52:41;;;;;;;7.82;6.90;;;;;;;24.65;89.70;99245.84;5097545;28;20073;-64
2023/07/31 03:55:07;;;;;;;10.68;6.88;;;;;;;24.40;95.02;99257.38;5096440;28;20040;-65
2023/07/31 03:57:33;;;;;;;7.93;6.85;;;;;;;24.51;95.80;99261.75;5097495;28;20081;-65
2023/07/31 03:59:59;;;;;;;7.88;7.07;;;;;;;24.59;96.30;99263.94;5096984;28;20107;-65
2023/07/31 04:02:24;;;;;;;8.32;7.22;;;;;;;24.38;95.85;99264.94;5096179;27;20059;-65
2023/07/31 04:04:50;;;;;;;8.25;7.07;;;;;;;24.39;97.09;99261.97;5097082;28;20070;-65
2023/07/31 04:07:15;;;;;;;8.02;7.22;;;;;;;24.40;97.69;99266.31;5098236;28;20024;-64
2023/07/31 04:09:41;;;;;;;8.80;6.78;;;;;;;24.12;98.54;99264.78;5095680;28;20040;-65
2023/07/31 04:12:07;;;;;;;8.60;7.18;;;;;;;24.28;98.49;99267.59;5095547;28;20042;-65
2023/07/31 04:14:32;;;;;;;16.45;14.90;;;;;;;24.07;99.79;99285.56;5096270;28;20458;-65
2023/07/31 04:16:58;;;;;;;9.18;7.60;;;;;;;24.18;100.00;99287.25;5097649;28;20251;-65
2023/07/31 04:19:24;;;;;;;9.55;7.47;;;;;;;24.25;100.00;99289.75;5096615;28;20044;-65
2023/07/31 04:21:49;;;;;;;10.40;8.98;;;;;;;24.26;100.00;99292.19;5096070;28;20035;-65
2023/07/31 04:24:15;;;;;;;9.40;8.05;;;;;;;24.35;100.00;99292.53;5097271;28;20055;-65
2023/07/31 04:26:40;;;;;;;9.88;7.57;;;;;;;24.37;100.00;99293.91;5096333;28;20589;-65
2023/07/31 04:29:06;;;;;;;10.15;8.52;;;;;;;24.39;100.00;99296.34;5096563;28;20052;-65
2023/07/31 04:31:31;;;;;;;9.65;7.97;;;;;;;24.46;100.00;99295.03;5096211;28;20033;-65
2023/07/31 04:33:57;;;;;;;10.63;8.40;;;;;;;24.50;100.00;99301.53;5096130;28;20139;-65
2023/07/31 04:36:22;;;;;;;9.60;8.43;;;;;;;24.59;99.46;99304.56;5096252;28;20040;-65
2023/07/31 04:38:48;;;;;;;10.93;8.65;;;;;;;24.60;100.00;99308.06;5098009;28;20032;-64
2023/07/31 04:41:14;;;;;;;9.55;8.13;;;;;;;24.69;99.11;99310.00;5095489;28;20032;-65
2023/07/31 04:43:39;;;;;;;9.65;8.63;;;;;;;24.74;98.17;99310.03;5097953;28;20028;-64
2023/07/31 04:46:05;;;;;;;10.82;9.73;;;;;;;24.84;96.69;99320.09;5096957;28;20107;-65
2023/07/31 04:48:31;;;;;;;11.38;9.13;;;;;;;24.92;95.54;99313.34;5097391;28;20028;-65
2023/07/31 04:50:56;;;;;;;9.70;8.23;;;;;;;25.05;94.50;99316.41;5094361;28;20035;-65
2023/07/31 04:53:21;;;;;;;9.43;8.52;;;;;;;25.16;93.83;99314.53;5095546;28;20040;-64
2023/07/31 04:55:47;;;;;;;8.52;7.60;;;;;;;25.24;93.63;99316.72;5095022;28;20039;-65
2023/07/31 04:58:12;;;;;;;12.25;9.60;;;;;;;25.32;92.42;99309.97;5097395;28;20028;-65
2023/07/31 05:00:38;;;;;;;9.40;8.18;;;;;;;25.08;93.31;99312.34;5098369;28;20035;-65
2023/07/31 05:03:03;;;;;;;8.88;7.97;;;;;;;25.13;93.19;99304.25;5095787;28;20251;-65
2023/07/31 05:05:29;;;;;;;10.80;7.70;;;;;;;25.20;92.02;99296.66;5095208;28;20040;-64
2023/07/31 05:07:54;;;;;;;10.23;8.55;;;;;;;25.28;91.84;99311.59;5097416;28;20032;-65
2023/07/31 05:10:20;;;;;;;11.35;10.20;;;;;;;25.35;93.23;99301.28;5096085;28;20036;-64
2023/07/31 05:12:45;;;;;;;12.82;10.68;;;;;;;25.43;94.44;99307.00;5097039;28;20340;-64
2023/07/31 05:15:10;;;;;;;10.13;8.77;;;;;;;25.36;94.61;99314.56;5098455;28;20058;-64
2023/07/31 05:17:36;;;;;;;11.30;8.60;;;;;;;25.25;94.22;99314.84;5100701;28;20028;-64
2023/07/31 05:20:02;;;;;;;16.42;14.68;;;;;;;25.22;95.07;99316.19;5100719;28;20042;-65
2023/07/31 05:22:27;;;;;;;56.35;50.97;;;;;;;24.97;96.13;99318.75;5098799;28;20028;-65
2023/07/31 05:24:54;;;;;;;19.20;17.42;;;;;;;25.04;97.19;99319.38;5099107;28;20047;-65
2023/07/31 05:27:19;;;;;;;10.07;9.18;;;;;;;25.06;96.89;99322.66;5099734;28;20027;-64
2023/07/31 05:29:45;;;;;;;11.68;10.57;;;;;;;25.10;97.36;99319.13;5098371;28;20086;-65
2023/07/31 05:32:11;;;;;;;22.48;20.17;;;;;;;25.22;96.94;99328.91;5100884;28;20314;-65
2023/07/31 05:34:37;;;;;;;18.27;16.48;;;;;;;25.33;96.03;99325.16;5098774;28;20259;-65
2023/07/31 05:37:02;;;;;;;13.60;11.82;;;;;;;25.35;96.04;99322.97;5100858;28;20028;-64
2023/07/31 05:39:28;;;;;;;12.15;9.90;;;;;;;25.42;95.41;99327.06;5100885;28;20055;-64
2023/07/31 05:41:53;;;;;;;17.90;16.27;;;;;;;25.33;95.50;99328.66;5099146;28;20040;-64
2023/07/31 05:44:18;;;;;;;9.70;8.77;;;;;;;25.33;94.88;99328.66;5098684;28;20052;-64
2023/07/31 05:46:44;;;;;;;17.55;16.15;;;;;;;25.21;94.44;99328.09;5097866;28;20046;-64
2023/07/31 05:49:09;;;;;;;13.60;12.27;;;;;;;25.41;92.89;99322.72;5099908;28;20085;-64
2023/07/31 05:51:35;;;;;;;11.52;10.55;;;;;;;25.55;93.58;99333.84;5098059;28;20052;-64
2023/07/31 05:54:00;;;;;;;10.25;9.20;;;;;;;25.62;93.28;99325.44;5099171;28;20036;-64
2023/07/31 05:56:27;;;;;;;9.00;7.47;;;;;;;25.63;90.23;99327.88;5098228;28;20111;-64
2023/07/31 05:58:52;;;;;;;9.52;8.63;;;;;;;25.78;90.24;99330.63;5098413;28;20024;-64
2023/07/31 06:01:18;;;;;;;12.98;11.68;;;;;;;25.83;89.68;99329.81;5099438;28;20254;-64
2023/07/31 06:03:44;;;;;;;10.05;9.02;;;;;;;25.89;90.11;99328.72;5099151;28;20123;-63
2023/07/31 06:06:09;;;;;;;8.45;7.45;;;;;;;25.94;89.60;99331.44;5098090;28;20217;-65
2023/07/31 06:08:35;;;;;;;7.68;6.22;;;;;;;25.95;88.00;99330.34;5097029;28;20032;-65
2023/07/31 06:11:00;;;;;;;7.53;6.70;;;;;;;26.06;86.94;99329.28;5098041;28;20589;-66
2023/07/31 06:13:26;;;;;;;8.88;6.50;;;;;;;26.28;85.54;99328.16;5098995;28;20036;-64
2023/07/31 06:15:51;;;;;;;7.07;6.32;;;;;;;26.27;84.39;99331.97;5099038;28;20386;-63
2023/07/31 06:18:17;;;;;;;9.23;7.30;;;;;;;26.20;82.49;99329.53;5099237;28;20046;-64
2023/07/31 06:20:42;;;;;;;8.30;6.97;;;;;;;26.40;81.50;99328.69;5099425;28;20084;-64
2023/07/31 06:23:08;;;;;;;9.13;7.13;;;;;;;26.53;82.12;99330.84;5099177;28;20342;-66
2023/07/31 06:25:33;;;;;;;12.82;10.20;;;;;;;26.44;80.29;99329.78;5098233;28;20044;-64
2023/07/31 06:27:59;;;;;;;13.88;11.43;;;;;;;26.42;79.39;99323.81;5099449;28;20322;-65
2023/07/31 06:30:24;;;;;;;12.07;10.18;;;;;;;26.51;76.51;99330.28;5098070;28;20046;-64
2023/07/31 06:32:50;;;;;;;14.45;13.15;;;;;;;26.65;76.98;99322.38;5096303;28;20456;-65
2023/07/31 06:35:15;;;;;;;11.23;10.13;;;;;;;27.01;76.56;99329.28;5098515;28;20047;-64
2023/07/31 06:37:43;;;;;;;13.52;12.13;;;;;;;27.20;73.59;99321.34;5096650;28;20205;-64
2023/07/31 06:40:09;;;;;;;10.82;9.73;;;;;;;27.60;71.70;99328.44;5099451;28;20040;-65
2023/07/31 06:42:35;;;;;;;9.27;7.75;;;;;;;27.98;71.28;99336.81;5096997;28;20033;-65
2023/07/31 06:45:02;;;;;;;8.85;7.53;;;;;;;28.26;68.20;99327.06;5097120;28;20032;-65
2023/07/31 06:47:27;;;;;;;9.30;7.32;;;;;;;28.43;66.78;99329.34;5093003;28;20195;-65
2023/07/31 06:49:52;;;;;;;10.05;9.00;;;;;;;28.37;65.10;99314.16;5097482;28;20047;-64
2023/07/31 06:52:21;;;;;;;9.00;8.07;;;;;;;28.63;64.98;99317.41;5099049;28;20038;-65
2023/07/31 06:55:01;;;;;;;10.60;7.68;;;;;;;28.77;63.66;99323.78;5097822;28;20043;-63
2023/07/31 06:57:26;;;;;;;9.43;8.52;;;;;;;28.92;63.58;99320.88;5096773;28;20586;-65
2023/07/31 06:59:52;;;;;;;8.85;7.80;;;;;;;29.19;62.52;99318.34;5098151;28;20039;-65
2023/07/31 07:02:17;;;;;;;12.95;11.77;;;;;;;29.16;61.89;99320.84;5097298;28;20040;-64
2023/07/31 07:04:43;;;;;;;9.32;8.38;;;;;;;29.50;58.91;99323.38;5100222;28;20345;-64
2023/07/31 07:07:08;;;;;;;9.13;8.10;;;;;;;29.53;58.75;99323.59;5101460;28;20265;-64
2023/07/31 07:09:33;;;;;;;9.77;8.77;;;;;;;29.62;59.51;99310.06;5097131;28;20249;-64
2023/07/31 07:11:59;;;;;;;12.10;8.52;;;;;;;29.92;58.61;99311.47;5096482;28;20363;-63
2023/07/31 07:14:24;;;;;;;11.52;10.43;;;;;;;29.82;57.19;99315.19;5096264;28;20047;-64
2023/07/31 07:16:53;;;;;;;11.77;9.07;;;;;;;30.08;56.05;99326.50;5096520;28;20039;-64
2023/07/31 07:19:18;;;;;;;9.80;8.57;;;;;;;30.17;55.40;99323.91;5097394;28;20035;-64
2023/07/31 07:21:43;;;;;;;11.98;10.77;;;;;;;30.08;53.57;99310.13;5096721;28;20028;-64
2023/07/31 07:24:09;;;;;;;11.82;10.68;;;;;;;30.13;56.25;99312.75;5097596;28;20047;-64
2023/07/31 07:26:34;;;;;;;10.25;9.25;;;;;;;30.41;55.31;99312.81;5096695;28;20036;-64
2023/07/31 07:29:02;;;;;;;10.73;9.35;;;;;;;30.65;55.02;99309.91;5097421;28;20044;-64
2023/07/31 07:31:28;;;;;;;14.82;13.52;;;;;;;30.79;53.66;99308.78;5098241;28;20058;-64
2023/07/31 07:33:54;;;;;;;15.43;13.93;;;;;;;30.69;52.77;99309.00;5097676;28;20035;-64
2023/07/31 07:36:19;;;;;;;9.95;8.98;;;;;;;30.90;51.75;99300.34;5097849;28;20032;-64
2023/07/31 07:38:45;;;;;;;10.30;9.30;;;;;;;31.04;52.20;99301.94;5098808;28;20034;-65
2023/07/31 07:41:10;;;;;;;10.50;9.40;;;;;;;31.25;51.08;99305.09;5099511;28;20054;-64
2023/07/31 07:43:35;;;;;;;10.50;9.40;;;;;;;31.30;50.49;99298.69;5097160;28;20387;-65
2023/07/31 07:46:01;;;;;;;12.07;10.75;;;;;;;31.29;50.95;99305.28;5098373;28;20368;-65
2023/07/31 07:48:26;;;;;;;11.32;9.63;;;;;;;31.52;50.61;99298.69;5096587;28;20059;-64
2023/07/31 07:50:52;;;;;;;11.73;10.23;;;;;;;31.62;49.38;99295.72;5097785;28;20039;-64
2023/07/31 07:53:17;;;;;;;11.85;9.50;;;;;;;31.66;49.15;99299.44;5097984;28;20400;-64
2023/07/31 07:55:43;;;;;;;9.73;8.73;;;;;;;31.75;48.54;99294.84;5098414;28;20042;-65
2023/07/31 07:58:08;;;;;;;11.02;9.43;;;;;;;31.78;48.85;99298.91;5096514;28;20034;-64
2023/07/31 08:00:33;;;;;;;9.18;8.27;;;;;;;31.89;47.69;99297.50;5098007;28;20073;-64
2023/07/31 08:02:59;;;;;;;10.38;9.15;;;;;;;31.99;48.93;99300.00;5097845;28;20260;-65
2023/07/31 08:05:26;;;;;;;9.43;7.80;;;;;;;32.02;48.46;99302.09;5096250;28;20135;-65
2023/07/31 08:07:51;;;;;;;10.60;9.52;;;;;;;31.83;48.10;99298.78;5095150;28;20024;-64
2023/07/31 08:10:17;;;;;;;8.88;7.72;;;;;;;31.61;47.21;99298.75;5097449;28;20036;-64
2023/07/31 08:12:42;;;;;;;15.52;13.95;;;;;;;31.41;48.04;99295.41;5096141;28;20055;-65
2023/07/31 08:15:08;;;;;;;11.10;10.02;;;;;;;31.46;48.13;99286.25;5098271;28;20044;-64
2023/07/31 08:17:34;;;;;;;13.32;12.13;;;;;;;31.85;48.62;99285.56;5097668;28;20058;-64
2023/07/31 08:19:59;;;;;;;9.55;8.68;;;;;;;32.16;46.09;99288.31;5096468;28;20392;-64
2023/07/31 08:22:25;;;;;;;8.35;7.65;;;;;;;32.32;45.85;99283.28;5096656;28;20101;-65
2023/07/31 08:24:51;;;;;;;9.15;8.30;;;;;;;32.21;44.54;99284.63;5096375;28;20040;-64
2023/07/31 08:27:16;;;;;;;11.43;10.43;;;;;;;32.21;46.22;99281.88;5096981;28;20040;-64
2023/07/31 08:29:42;;;;;;;9.77;8.45;;;;;;;32.26;43.54;99279.88;5097942;28;20073;-65
2023/07/31 08:32:07;;;;;;;8.32;7.53;;;;;;;31.91;45.09;99280.78;5095960;28;20405;-64
2023/07/31 08:34:33;;;;;;;8.90;8.00;;;;;;;31.80;45.85;99277.50;5097958;28;20040;-64
2023/07/31 08:36:58;;;;;;;7.93;7.13;;;;;;;31.88;45.59;99276.75;5097165;28;20032;-64
2023/07/31 08:39:24;;;;;;;8.50;7.80;;;;;;;32.22;44.36;99273.34;5096208;28;20326;-65
2023/07/31 08:41:49;;;;;;;9.00;8.10;;;;;;;32.24;43.43;99271.13;5095376;28;20384;-64
2023/07/31 08:44:16;;;;;;;10.70;9.70;;;;;;;32.43;44.18;99276.38;5097215;28;20040;-65
2023/07/31 08:46:42;;;;;;;8.68;7.88;;;;;;;32.41;41.62;99269.59;5096044;28;20036;-64
2023/07/31 08:49:09;;;;;;;8.52;7.72;;;;;;;32.52;43.73;99262.69;5098370;28;20406;-65
2023/07/31 08:51:35;;;;;;;9.13;8.23;;;;;;;32.42;42.92;99265.75;5099954;28;20028;-65
2023/07/31 08:54:01;;;;;;;9.20;8.40;;;;;;;32.31;42.85;99271.50;5099037;28;20032;-65
2023/07/31 08:56:28;;;;;;;12.02;10.93;;;;;;;32.28;42.05;99272.16;5099932;28;20285;-64
2023/07/31 08:58:54;;;;;;;8.80;7.97;;;;;;;32.42;43.93;99271.22;5099980;28;20237;-64
2023/07/31 09:01:21;;;;;;;8.68;7.80;;;;;;;32.38;42.44;99280.06;5098523;28;20682;-64
2023/07/31 09:03:49;;;;;;;10.20;9.10;;;;;;;32.15;44.77;99275.75;5099954;28;20333;-65
2023/07/31 09:06:18;;;;;;;11.10;10.00;;;;;;;31.79;45.77;99275.06;5095532;28;20398;-64
2023/07/31 09:08:43;;;;;;;10.73;9.65;;;;;;;31.67;45.43;99272.88;5099960;28;20031;-64
2023/07/31 09:11:09;;;;;;;11.13;10.02;;;;;;;31.53;46.38;99272.94;5100553;28;20236;-64
2023/07/31 09:13:35;;;;;;;12.48;11.32;;;;;;;31.47;46.27;99270.66;5099443;28;20036;-65
2023/07/31 09:16:00;;;;;;;10.80;9.38;;;;;;;31.69;45.35;99270.63;5100546;28;20040;-64
2023/07/31 09:18:26;;;;;;;10.38;8.73;;;;;;;31.67;45.39;99276.41;5102359;28;20334;-64
2023/07/31 09:21:05;;;;;;;12.38;11.18;;;;;;;31.16;45.43;99273.28;5099287;28;20042;-64
2023/07/31 09:23:45;;;;;;;10.10;9.10;;;;;;;31.03;45.42;99272.97;5099520;28;20046;-64
2023/07/31 09:26:11;;;;;;;10.38;9.38;;;;;;;31.00;47.38;99264.59;5100013;28;20060;-64
2023/07/31 09:28:36;;;;;;;11.88;10.63;;;;;;;31.08;47.01;99266.59;5100817;28;20027;-64
2023/07/31 09:31:02;;;;;;;10.82;9.73;;;;;;;31.29;46.71;99272.44;5098633;28;20036;-64
2023/07/31 09:33:27;;;;;;;11.77;9.98;;;;;;;31.26;46.31;99268.41;5098618;28;20330;-64
2023/07/31 09:35:53;;;;;;;10.75;9.65;;;;;;;31.30;45.68;99260.41;5099442;28;20035;-64
2023/07/31 09:38:19;;;;;;;13.20;12.02;;;;;;;31.39;46.01;99258.53;5099163;28;20320;-64
2023/07/31 09:40:47;;;;;;;10.63;9.35;;;;;;;31.58;44.73;99266.53;5099686;28;20119;-64
2023/07/31 09:43:17;;;;;;;10.07;9.07;;;;;;;31.08;51.00;99256.47;5098360;28;20050;-64
2023/07/31 09:45:44;;;;;;;10.75;9.57;;;;;;;30.16;54.17;99257.56;5098753;28;20043;-64
2023/07/31 09:48:18;;;;;;;11.15;9.60;;;;;;;29.72;55.62;99258.06;5097751;28;20365;-64
2023/07/31 09:50:45;;;;;;;10.70;9.10;;;;;;;29.81;55.95;99250.81;5099424;28;20036;-64
2023/07/31 09:53:11;;;;;;;11.52;10.32;;;;;;;29.84;55.78;99252.94;5097529;28;20036;-64
2023/07/31 09:55:38;;;;;;;11.10;9.77;;;;;;;29.85;56.72;99264.66;5099802;28;20341;-64
2023/07/31 09:58:06;;;;;;;11.15;10.02;;;;;;;30.00;55.12;99261.66;5093818;28;20087;-64
2023/07/31 10:00:32;;;;;;;12.80;10.02;;;;;;;30.02;54.88;99259.47;5097544;28;20082;-64
2023/07/31 10:03:05;;;;;;;10.95;9.85;;;;;;;29.87;53.92;99255.06;5098399;28;20326;-64
2023/07/31 10:05:35;;;;;;;10.63;9.13;;;;;;;29.79;53.83;99255.75;5098495;28;20338;-64
2023/07/31 10:08:01;;;;;;;10.30;9.13;;;;;;;29.70;53.02;99251.28;5097859;28;20039;-64
2023/07/31 10:10:28;;;;;;;10.38;9.30;;;;;;;29.70;53.34;99248.56;5098236;28;20036;-64
2023/07/31 10:12:55;;;;;;;11.20;9.40;;;;;;;29.66;52.73;99250.28;5097988;28;20036;-64
2023/07/31 10:15:21;;;;;;;10.23;9.10;;;;;;;29.71;52.71;99248.25;5099156;28;20411;-64
2023/07/31 10:17:48;;;;;;;10.68;9.57;;;;;;;29.79;52.00;99246.75;5096527;28;21024;-64
2023/07/31 10:20:18;;;;;;;10.63;9.52;;;;;;;29.75;53.55;99243.81;5098986;28;20413;-64
2023/07/31 10:22:45;;;;;;;10.15;9.20;;;;;;;29.97;52.61;99239.59;5100397;28;20051;-64
2023/07/31 10:25:11;;;;;;;10.82;9.20;;;;;;;29.84;54.82;99241.22;5097564;28;20333;-64
2023/07/31 10:27:38;;;;;;;11.95;10.00;;;;;;;29.90;53.10;99233.72;5099455;28;20870;-64
2023/07/31 10:30:07;;;;;;;10.63;9.52;;;;;;;30.11;52.55;99224.06;5097688;28;20388;-64
2023/07/31 10:32:34;;;;;;;12.15;9.57;;;;;;;30.01;49.92;99219.63;5099577;28;20032;-64
2023/07/31 10:35:02;;;;;;;10.18;9.15;;;;;;;30.22;50.51;99203.66;5098967;28;20235;-64
2023/07/31 10:37:35;;;;;;;10.80;9.80;;;;;;;30.49;51.47;99203.63;5099771;28;20040;-64
2023/07/31 10:40:02;;;;;;;10.85;9.77;;;;;;;30.66;50.79;99205.75;5098512;28;20222;-64
2023/07/31 10:42:58;;;;;;;10.13;9.10;;;;;;;30.38;51.93;99207.69;5095873;28;20260;-64
2023/07/31 10:45:37;;;;;;;11.05;9.52;;;;;;;30.44;49.47;99195.56;5095829;28;20056;-64
2023/07/31 10:48:07;;;;;;;12.93;9.77;;;;;;;30.26;49.26;99192.94;5097455;28;20028;-64
2023/07/31 10:50:38;;;;;;;10.18;9.10;;;;;;;30.14;50.00;99194.25;5094167;28;20036;-64
2023/07/31 10:53:04;;;;;;;10.70;9.43;;;;;;;30.31;48.02;99195.56;5097849;28;20028;-64
2023/07/31 10:55:41;;;;;;;10.68;9.65;;;;;;;30.46;47.59;99190.59;5097615;28;20063;-64
2023/07/31 10:58:08;;;;;;;11.32;9.20;;;;;;;30.57;48.93;99187.63;5098096;28;20345;-64
2023/07/31 11:00:37;;;;;;;10.57;9.10;;;;;;;30.40;47.69;99188.28;5094538;28;20392;-64
2023/07/31 11:03:02;;;;;;;10.77;9.65;;;;;;;30.37;48.01;99189.69;5097620;28;20296;-64
2023/07/31 11:06:11;;;;;;;10.30;9.30;;;;;;;30.37;49.12;99183.44;5097191;28;20051;-64
2023/07/31 11:08:43;;;;;;;11.32;8.77;;;;;;;30.29;49.42;99189.59;5097612;28;20051;-65
2023/07/31 11:11:10;;;;;;;10.70;9.60;;;;;;;30.28;48.92;99197.00;5097155;28;20257;-64
2023/07/31 11:13:40;;;;;;;9.77;8.68;;;;;;;30.36;49.42;99195.47;5098051;28;20062;-64
2023/07/31 11:16:05;;;;;;;10.73;7.25;;;;;;;30.16;49.83;99197.47;5097425;28;20259;-65
2023/07/31 11:18:31;;;;;;;14.15;7.40;;;;;;;29.74;52.75;99208.66;5097730;28;20033;-64
2023/07/31 11:20:56;;;;;;;19.90;8.65;;;;;;;29.35;55.29;99215.31;5097265;28;20073;-64
2023/07/31 11:23:23;;;;;;;10.48;7.70;;;;;;;28.88;57.61;99206.19;5095481;28;20036;-64
2023/07/31 11:25:50;;;;;;;19.98;8.93;;;;;;;28.63;58.05;99206.53;5096871;28;20377;-64
2023/07/31 11:28:17;;;;;;;17.75;9.00;;;;;;;28.38;55.83;99193.25;5097950;28;20213;-64